createdAt,value
2016-10-21T00:00:09.404Z,20.58
2016-10-21T00:01:20.348Z,20.58
2016-10-21T00:02:31.296Z,20.58
2016-10-21T00:03:42.235Z,20.59
2016-10-21T00:04:53.173Z,20.59
2016-10-21T00:06:04.101Z,20.62
2016-10-21T00:07:15.026Z,20.58
2016-10-21T00:08:26.013Z,20.5
2016-10-21T00:09:36.982Z,20.54
2016-10-21T00:10:48.475Z,20.55
2016-10-21T00:11:59.414Z,20.48
2016-10-21T00:13:10.364Z,20.42
2016-10-21T00:14:21.321Z,20.48
2016-10-21T00:15:32.231Z,20.48
2016-10-21T00:16:43.189Z,20.51
2016-10-21T00:17:54.142Z,20.51
2016-10-21T00:19:05.077Z,20.41
2016-10-21T00:20:16.034Z,20.41
2016-10-21T00:21:26.979Z,20.43
2016-10-21T00:22:37.929Z,20.28
2016-10-21T00:23:48.872Z,20.41
2016-10-21T00:24:59.799Z,20.29
2016-10-21T00:26:10.769Z,20.29
2016-10-21T00:27:21.729Z,20.33
2016-10-21T00:28:32.657Z,20.31
2016-10-21T00:29:43.650Z,20.31
2016-10-21T00:30:55.192Z,20.23
2016-10-21T00:32:06.682Z,20.31
2016-10-21T00:33:18.154Z,20.28
2016-10-21T00:34:29.089Z,20.29
2016-10-21T00:35:40.004Z,20.28
2016-10-21T00:36:50.964Z,20.29
2016-10-21T00:38:01.897Z,20.31
2016-10-21T00:39:12.834Z,20.29
2016-10-21T00:40:23.782Z,20.35
2016-10-21T00:41:34.762Z,20.32
2016-10-21T00:42:45.695Z,20.32
2016-10-21T00:43:56.649Z,20.31
2016-10-21T00:45:07.595Z,20.31
2016-10-21T00:46:18.555Z,20.29
2016-10-21T00:47:29.503Z,20.29
2016-10-21T00:48:40.455Z,20.31
2016-10-21T00:49:51.972Z,20.31
2016-10-21T00:51:02.901Z,20.33
2016-10-21T00:52:13.828Z,20.33
2016-10-21T00:53:24.759Z,20.43
2016-10-21T00:54:35.681Z,20.31
2016-10-21T00:55:46.644Z,20.23
2016-10-21T00:56:57.583Z,20.32
2016-10-21T00:58:08.689Z,20.18
2016-10-21T00:59:19.632Z,20.14
2016-10-21T01:00:30.602Z,20.11
2016-10-21T01:01:41.538Z,20.13
2016-10-21T01:02:52.502Z,19.98
2016-10-21T01:04:03.533Z,19.87
2016-10-21T01:05:14.467Z,19.81
2016-10-21T01:06:25.443Z,19.68
2016-10-21T01:07:36.371Z,19.68
2016-10-21T01:08:47.315Z,19.54
2016-10-21T01:09:58.281Z,19.46
2016-10-21T01:11:09.816Z,19.32
2016-10-21T01:12:20.732Z,19.31
2016-10-21T01:13:31.697Z,19.23
2016-10-21T01:14:42.641Z,19.1
2016-10-21T01:15:53.578Z,19.11
2016-10-21T01:17:04.536Z,19.06
2016-10-21T01:18:15.477Z,19.1
2016-10-21T01:19:26.434Z,19.06
2016-10-21T01:20:37.376Z,18.99
2016-10-21T01:21:48.304Z,19.04
2016-10-21T01:22:59.239Z,19.02
2016-10-21T01:24:10.744Z,18.9
2016-10-21T01:25:21.672Z,18.91
2016-10-21T01:26:32.593Z,18.9
2016-10-21T01:27:43.521Z,18.82
2016-10-21T01:28:54.506Z,18.82
2016-10-21T01:30:05.460Z,18.8
2016-10-21T01:31:16.423Z,18.8
2016-10-21T01:32:27.343Z,18.76
2016-10-21T01:33:38.286Z,18.72
2016-10-21T01:34:49.217Z,18.69
2016-10-21T01:36:00.217Z,18.75
2016-10-21T01:37:11.182Z,18.76
2016-10-21T01:38:22.108Z,18.72
2016-10-21T01:39:33.046Z,18.62
2016-10-21T01:40:43.981Z,18.81
2016-10-21T01:41:54.929Z,18.73
2016-10-21T01:43:05.879Z,18.76
2016-10-21T01:44:16.821Z,18.73
2016-10-21T01:45:27.764Z,18.73
2016-10-21T01:46:38.717Z,18.7
2016-10-21T01:47:49.651Z,18.7
2016-10-21T01:49:00.605Z,18.62
2016-10-21T01:50:11.582Z,18.72
2016-10-21T01:51:22.508Z,18.75
2016-10-21T01:52:33.469Z,18.75
2016-10-21T01:53:44.413Z,18.72
2016-10-21T01:54:55.389Z,18.69
2016-10-21T01:56:06.326Z,18.7
2016-10-21T01:57:17.272Z,18.69
2016-10-21T01:58:28.222Z,18.76
2016-10-21T01:59:39.147Z,18.78
2016-10-21T02:00:50.085Z,18.7
2016-10-21T02:02:01.040Z,18.78
2016-10-21T02:03:11.984Z,18.7
2016-10-21T02:04:22.959Z,18.75
2016-10-21T02:05:33.904Z,18.78
2016-10-21T02:06:44.863Z,18.7
2016-10-21T02:07:55.790Z,18.82
2016-10-21T02:09:06.741Z,18.82
2016-10-21T02:10:17.763Z,18.8
2016-10-21T02:11:28.745Z,18.75
2016-10-21T02:12:39.692Z,18.87
2016-10-21T02:13:50.627Z,18.85
2016-10-21T02:15:01.603Z,18.85
2016-10-21T02:16:12.579Z,18.9
2016-10-21T02:17:23.556Z,18.87
2016-10-21T02:18:34.499Z,18.82
2016-10-21T02:19:45.429Z,18.88
2016-10-21T02:20:56.390Z,18.9
2016-10-21T02:22:07.343Z,18.91
2016-10-21T02:23:18.279Z,18.91
2016-10-21T02:24:29.219Z,18.85
2016-10-21T02:25:40.178Z,18.91
2016-10-21T02:26:51.131Z,18.9
2016-10-21T02:28:02.626Z,18.9
2016-10-21T02:29:13.561Z,18.91
2016-10-21T02:30:24.497Z,18.85
2016-10-21T02:31:35.431Z,18.91
2016-10-21T02:32:46.347Z,18.92
2016-10-21T02:33:57.264Z,18.88
2016-10-21T02:35:08.219Z,18.85
2016-10-21T02:36:19.156Z,18.81
2016-10-21T02:37:30.120Z,18.91
2016-10-21T02:38:41.106Z,18.95
2016-10-21T02:39:52.041Z,18.85
2016-10-21T02:41:02.976Z,18.75
2016-10-21T02:42:13.922Z,18.91
2016-10-21T02:43:24.854Z,18.9
2016-10-21T02:44:35.773Z,18.9
2016-10-21T02:45:46.712Z,18.88
2016-10-21T02:46:57.869Z,18.9
2016-10-21T02:48:08.996Z,18.84
2016-10-21T02:49:19.926Z,18.92
2016-10-21T02:50:30.862Z,18.94
2016-10-21T02:51:41.804Z,18.95
2016-10-21T02:52:52.760Z,18.95
2016-10-21T02:54:03.702Z,18.84
2016-10-21T02:55:14.647Z,18.99
2016-10-21T02:56:25.586Z,18.94
2016-10-21T02:57:36.509Z,18.85
2016-10-21T02:58:47.469Z,18.88
2016-10-21T02:59:58.404Z,18.91
2016-10-21T03:01:09.372Z,18.87
2016-10-21T03:02:20.368Z,18.85
2016-10-21T03:03:31.367Z,18.91
2016-10-21T03:04:42.314Z,18.95
2016-10-21T03:05:53.249Z,18.95
2016-10-21T03:07:04.201Z,18.87
2016-10-21T03:08:15.136Z,18.94
2016-10-21T03:09:26.070Z,18.88
2016-10-21T03:10:37.016Z,18.88
2016-10-21T03:11:47.965Z,18.91
2016-10-21T03:12:58.897Z,18.91
2016-10-21T03:14:09.833Z,18.84
2016-10-21T03:15:20.767Z,18.87
2016-10-21T03:16:31.706Z,18.9
2016-10-21T03:17:42.645Z,18.9
2016-10-21T03:18:53.614Z,18.87
2016-10-21T03:20:04.571Z,18.91
2016-10-21T03:21:15.551Z,18.87
2016-10-21T03:22:26.497Z,18.85
2016-10-21T03:23:37.455Z,18.84
2016-10-21T03:24:48.402Z,18.9
2016-10-21T03:25:59.338Z,18.85
2016-10-21T03:27:10.274Z,18.9
2016-10-21T03:28:21.231Z,18.91
2016-10-21T03:29:32.176Z,18.84
2016-10-21T03:30:43.112Z,18.82
2016-10-21T03:31:54.051Z,18.84
2016-10-21T03:33:05.019Z,18.87
2016-10-21T03:34:15.974Z,18.87
2016-10-21T03:35:26.941Z,18.84
2016-10-21T03:36:37.887Z,18.82
2016-10-21T03:37:48.813Z,18.82
2016-10-21T03:38:59.766Z,18.8
2016-10-21T03:40:10.694Z,18.84
2016-10-21T03:41:21.649Z,18.81
2016-10-21T03:42:32.571Z,18.84
2016-10-21T03:43:43.502Z,18.85
2016-10-21T03:44:54.440Z,18.81
2016-10-21T03:46:05.417Z,18.8
2016-10-21T03:47:16.347Z,18.78
2016-10-21T03:48:27.292Z,18.81
2016-10-21T03:49:38.251Z,18.7
2016-10-21T03:50:49.198Z,18.82
2016-10-21T03:52:00.129Z,18.75
2016-10-21T03:53:11.069Z,18.7
2016-10-21T03:54:22.011Z,18.78
2016-10-21T03:55:32.983Z,18.78
2016-10-21T03:56:43.952Z,18.78
2016-10-21T03:57:54.875Z,18.69
2016-10-21T03:59:05.794Z,18.7
2016-10-21T04:00:16.738Z,18.66
2016-10-21T04:01:27.681Z,18.76
2016-10-21T04:02:38.618Z,18.8
2016-10-21T04:03:49.560Z,18.75
2016-10-21T04:05:00.498Z,18.82
2016-10-21T04:06:11.418Z,18.8
2016-10-21T04:07:22.361Z,18.8
2016-10-21T04:08:33.303Z,18.82
2016-10-21T04:09:44.279Z,18.82
2016-10-21T04:10:55.224Z,18.99
2016-10-21T04:12:06.693Z,18.94
2016-10-21T04:13:17.644Z,18.99
2016-10-21T04:14:28.615Z,18.91
2016-10-21T04:15:39.549Z,18.82
2016-10-21T04:16:50.503Z,18.87
2016-10-21T04:18:01.424Z,18.99
2016-10-21T04:19:12.380Z,18.94
2016-10-21T04:20:23.323Z,18.92
2016-10-21T04:21:34.260Z,18.91
2016-10-21T04:22:45.209Z,19.04
2016-10-21T04:23:56.148Z,19.07
2016-10-21T04:25:07.109Z,19
2016-10-21T04:26:18.043Z,19.22
2016-10-21T04:27:28.983Z,19.19
2016-10-21T04:28:39.910Z,19.19
2016-10-21T04:29:50.861Z,19.02
2016-10-21T04:31:01.994Z,19.07
2016-10-21T04:32:12.919Z,18.95
2016-10-21T04:33:23.879Z,18.99
2016-10-21T04:37:50.554Z,19.04
2016-10-21T04:39:01.505Z,19.22
2016-10-21T04:40:12.437Z,19.21
2016-10-21T04:41:23.400Z,19.1
2016-10-21T04:42:34.356Z,19.13
2016-10-21T04:43:45.291Z,19.1
2016-10-21T04:44:56.223Z,19.21
2016-10-21T04:46:07.207Z,19.22
2016-10-21T04:47:18.180Z,19.19
2016-10-21T04:48:29.138Z,19.16
2016-10-21T04:49:40.071Z,19.06
2016-10-21T04:50:51.021Z,19.04
2016-10-21T04:52:01.964Z,18.91
2016-10-21T04:53:12.897Z,18.8
2016-10-21T04:54:23.830Z,18.78
2016-10-21T04:55:34.783Z,18.76
2016-10-21T04:56:45.714Z,18.75
2016-10-21T04:57:56.664Z,18.78
2016-10-21T04:59:07.611Z,18.78
2016-10-21T05:00:19.106Z,18.67
2016-10-21T05:01:30.055Z,18.81
2016-10-21T05:02:41.001Z,18.78
2016-10-21T05:03:51.936Z,18.84
2016-10-21T05:05:02.891Z,18.78
2016-10-21T05:06:13.851Z,18.67
2016-10-21T05:07:24.806Z,18.76
2016-10-21T05:08:35.718Z,18.8
2016-10-21T05:09:46.670Z,18.82
2016-10-21T05:10:57.599Z,18.92
2016-10-21T05:12:08.552Z,18.92
2016-10-21T05:13:19.525Z,18.9
2016-10-21T05:14:30.498Z,18.91
2016-10-21T05:15:41.488Z,18.88
2016-10-21T05:16:52.437Z,18.92
2016-10-21T05:18:03.397Z,18.91
2016-10-21T05:19:14.342Z,19.04
2016-10-21T05:20:25.282Z,19
2016-10-21T05:21:36.236Z,19.04
2016-10-21T05:22:47.174Z,19
2016-10-21T05:23:58.120Z,19.06
2016-10-21T05:25:09.070Z,19.06
2016-10-21T05:26:19.987Z,19.07
2016-10-21T05:27:30.937Z,19.1
2016-10-21T05:28:41.876Z,19.02
2016-10-21T05:29:52.805Z,18.99
2016-10-21T05:31:03.747Z,18.94
2016-10-21T05:32:14.701Z,18.91
2016-10-21T05:33:25.658Z,18.81
2016-10-21T05:34:36.628Z,18.81
2016-10-21T05:35:47.569Z,18.82
2016-10-21T05:36:58.521Z,18.78
2016-10-21T05:38:09.462Z,18.76
2016-10-21T05:39:20.402Z,18.65
2016-10-21T05:40:31.343Z,18.69
2016-10-21T05:41:42.273Z,18.72
2016-10-21T05:42:53.201Z,18.58
2016-10-21T05:44:04.130Z,18.69
2016-10-21T05:45:15.105Z,18.69
2016-10-21T05:46:26.052Z,18.63
2016-10-21T05:47:36.979Z,18.78
2016-10-21T05:48:47.927Z,18.73
2016-10-21T05:49:58.851Z,18.67
2016-10-21T05:51:09.776Z,18.67
2016-10-21T05:52:20.726Z,18.72
2016-10-21T05:53:31.663Z,18.63
2016-10-21T05:54:43.623Z,18.65
2016-10-21T05:55:54.640Z,18.67
2016-10-21T05:57:05.616Z,18.57
2016-10-21T05:58:16.651Z,18.6
2016-10-21T05:59:27.593Z,18.52
2016-10-21T06:00:38.542Z,18.48
2016-10-21T06:01:49.487Z,18.58
2016-10-21T06:03:00.419Z,18.54
2016-10-21T06:04:11.354Z,18.58
2016-10-21T06:05:22.293Z,18.57
2016-10-21T06:06:33.414Z,18.52
2016-10-21T06:07:44.355Z,18.58
2016-10-21T06:08:55.289Z,18.62
2016-10-21T06:10:06.253Z,18.6
2016-10-21T06:11:17.209Z,18.52
2016-10-21T06:12:28.144Z,18.62
2016-10-21T06:13:39.090Z,18.6
2016-10-21T06:14:50.075Z,18.63
2016-10-21T06:16:01.011Z,18.65
2016-10-21T06:17:12.503Z,18.7
2016-10-21T06:18:23.462Z,18.75
2016-10-21T06:19:34.404Z,18.78
2016-10-21T06:20:45.327Z,18.72
2016-10-21T06:21:56.250Z,18.85
2016-10-21T06:23:07.198Z,18.88
2016-10-21T06:24:18.143Z,18.87
2016-10-21T06:25:29.661Z,19
2016-10-21T06:26:40.597Z,18.99
2016-10-21T06:27:51.560Z,18.84
2016-10-21T06:29:02.477Z,18.82
2016-10-21T06:30:13.462Z,18.9
2016-10-21T06:31:24.399Z,18.84
2016-10-21T06:32:35.334Z,18.8
2016-10-21T06:33:46.272Z,18.73
2016-10-21T06:34:57.218Z,18.92
2016-10-21T06:36:08.140Z,18.81
2016-10-21T06:37:19.079Z,18.7
2016-10-21T06:38:30.214Z,18.75
2016-10-21T06:39:41.141Z,18.78
2016-10-21T06:40:52.080Z,18.67
2016-10-21T06:42:03.009Z,18.7
2016-10-21T06:43:13.954Z,18.65
2016-10-21T06:44:24.880Z,18.67
2016-10-21T06:45:35.812Z,18.66
2016-10-21T06:46:46.768Z,18.62
2016-10-21T06:47:57.696Z,18.55
2016-10-21T06:49:08.630Z,18.55
2016-10-21T06:50:19.565Z,18.52
2016-10-21T06:51:30.524Z,18.57
2016-10-21T06:52:41.475Z,18.55
2016-10-21T06:53:52.581Z,18.58
2016-10-21T06:55:03.770Z,18.55
2016-10-21T06:56:14.795Z,18.6
2016-10-21T06:57:25.729Z,18.54
2016-10-21T06:58:36.667Z,18.44
2016-10-21T06:59:47.614Z,18.5
2016-10-21T07:00:58.588Z,18.51
2016-10-21T07:02:09.506Z,18.55
2016-10-21T07:03:20.453Z,18.52
2016-10-21T07:04:31.408Z,18.57
2016-10-21T07:05:42.379Z,18.55
2016-10-21T07:06:53.328Z,18.62
2016-10-21T07:08:04.296Z,18.58
2016-10-21T07:09:15.200Z,18.5
2016-10-21T07:10:26.093Z,18.55
2016-10-21T07:11:37.141Z,18.58
2016-10-21T07:12:48.335Z,18.72
2016-10-21T07:13:59.495Z,18.58
2016-10-21T07:15:10.661Z,18.65
2016-10-21T07:16:21.837Z,18.58
2016-10-21T07:17:33.004Z,18.69
2016-10-21T07:18:44.209Z,18.69
2016-10-21T07:19:55.398Z,18.7
2016-10-21T07:21:06.542Z,18.73
2016-10-21T07:22:17.691Z,18.78
2016-10-21T07:23:28.827Z,18.78
2016-10-21T07:24:39.994Z,18.67
2016-10-21T07:25:51.219Z,18.7
2016-10-21T07:27:02.371Z,18.76
2016-10-21T07:28:13.585Z,18.72
2016-10-21T07:29:24.758Z,18.81
2016-10-21T07:30:35.944Z,18.8
2016-10-21T07:31:47.109Z,18.82
2016-10-21T07:32:58.305Z,18.94
2016-10-21T07:34:09.458Z,18.88
2016-10-21T07:35:20.620Z,18.9
2016-10-21T07:36:31.794Z,18.99
2016-10-21T07:37:43.021Z,19
2016-10-21T07:38:54.191Z,19
2016-10-21T07:40:05.355Z,18.98
2016-10-21T07:41:16.496Z,19.06
2016-10-21T07:42:28.224Z,18.98
2016-10-21T07:43:39.428Z,18.99
2016-10-21T07:44:50.584Z,18.92
2016-10-21T07:46:01.805Z,18.88
2016-10-21T07:47:12.968Z,18.85
2016-10-21T07:48:24.140Z,18.8
2016-10-21T07:49:35.320Z,18.85
2016-10-21T07:50:46.499Z,18.78
2016-10-21T07:51:57.724Z,18.75
2016-10-21T07:53:09.440Z,18.78
2016-10-21T07:54:20.586Z,18.78
2016-10-21T07:55:31.745Z,18.8
2016-10-21T07:56:42.912Z,18.73
2016-10-21T07:57:54.056Z,18.69
2016-10-21T07:59:05.221Z,18.75
2016-10-21T08:00:16.376Z,18.7
2016-10-21T08:01:27.529Z,18.67
2016-10-21T08:02:38.662Z,18.7
2016-10-21T08:03:49.810Z,18.7
2016-10-21T08:05:00.965Z,18.62
2016-10-21T08:06:12.678Z,18.6
2016-10-21T08:07:23.822Z,18.63
2016-10-21T08:08:34.995Z,18.6
2016-10-21T08:09:46.186Z,18.6
2016-10-21T08:10:57.366Z,18.63
2016-10-21T08:12:08.578Z,18.6
2016-10-21T08:13:19.756Z,18.6
2016-10-21T08:14:30.928Z,18.67
2016-10-21T08:15:42.681Z,18.67
2016-10-21T08:16:53.849Z,18.66
2016-10-21T08:18:05.018Z,18.58
2016-10-21T08:19:16.193Z,18.6
2016-10-21T08:20:27.357Z,18.66
2016-10-21T08:21:38.510Z,18.7
2016-10-21T08:22:49.688Z,18.65
2016-10-21T08:24:00.836Z,18.65
2016-10-21T08:25:12.032Z,18.63
2016-10-21T08:26:23.224Z,18.67
2016-10-21T08:27:34.420Z,18.66
2016-10-21T08:28:45.591Z,18.63
2016-10-21T08:29:56.734Z,18.58
2016-10-21T08:31:07.935Z,18.6
2016-10-21T08:32:19.087Z,18.65
2016-10-21T08:33:30.254Z,18.58
2016-10-21T08:34:41.414Z,18.72
2016-10-21T08:35:52.559Z,18.57
2016-10-21T08:37:03.726Z,18.67
2016-10-21T08:38:14.877Z,18.66
2016-10-21T08:39:26.048Z,18.58
2016-10-21T08:40:37.195Z,18.6
2016-10-21T08:41:48.373Z,18.55
2016-10-21T08:43:00.084Z,18.67
2016-10-21T08:44:11.264Z,18.65
2016-10-21T08:45:22.433Z,18.72
2016-10-21T08:46:33.596Z,18.62
2016-10-21T08:47:44.752Z,18.69
2016-10-21T08:48:55.907Z,18.69
2016-10-21T08:50:07.085Z,18.76
2016-10-21T08:51:18.263Z,18.78
2016-10-21T08:52:29.404Z,18.81
2016-10-21T08:53:40.583Z,18.84
2016-10-21T08:54:51.739Z,18.81
2016-10-21T08:56:02.938Z,18.85
2016-10-21T08:57:14.124Z,18.9
2016-10-21T08:58:25.259Z,19
2016-10-21T08:59:36.411Z,18.92
2016-10-21T09:00:47.565Z,18.95
2016-10-21T09:01:58.735Z,18.88
2016-10-21T09:03:10.562Z,18.92
2016-10-21T09:04:21.690Z,18.88
2016-10-21T09:05:32.821Z,18.98
2016-10-21T09:06:44.002Z,19.07
2016-10-21T09:07:55.188Z,19.06
2016-10-21T09:09:06.362Z,19.1
2016-10-21T09:10:17.517Z,19.08
2016-10-21T09:11:28.661Z,19
2016-10-21T09:12:39.821Z,19.1
2016-10-21T09:13:50.994Z,19.13
2016-10-21T09:15:02.146Z,19.02
2016-10-21T09:16:13.290Z,19.08
2016-10-21T09:17:24.436Z,19.04
2016-10-21T09:18:35.601Z,19.19
2016-10-21T09:19:47.295Z,19.1
2016-10-21T09:20:58.472Z,19.14
2016-10-21T09:22:09.614Z,19.19
2016-10-21T09:23:20.765Z,19.19
2016-10-21T09:24:31.962Z,19.13
2016-10-21T09:25:43.158Z,19.19
2016-10-21T09:26:54.310Z,19.13
2016-10-21T09:28:06.015Z,19.06
2016-10-21T09:29:17.167Z,19.07
2016-10-21T09:30:28.315Z,18.95
2016-10-21T09:31:39.493Z,18.9
2016-10-21T09:32:50.640Z,18.88
2016-10-21T09:34:01.786Z,18.9
2016-10-21T09:35:12.925Z,18.82
2016-10-21T09:36:24.113Z,18.8
2016-10-21T09:37:35.279Z,18.88
2016-10-21T09:38:46.431Z,18.67
2016-10-21T09:39:57.569Z,18.8
2016-10-21T09:41:08.739Z,18.84
2016-10-21T09:42:19.875Z,18.76
2016-10-21T09:43:31.040Z,18.85
2016-10-21T09:44:42.214Z,18.84
2016-10-21T09:45:53.351Z,18.69
2016-10-21T09:47:04.512Z,18.67
2016-10-21T09:48:15.657Z,18.73
2016-10-21T09:49:26.805Z,18.82
2016-10-21T09:50:37.953Z,18.84
2016-10-21T09:51:49.107Z,18.88
2016-10-21T09:53:00.264Z,18.9
2016-10-21T09:54:11.406Z,18.85
2016-10-21T09:55:22.583Z,18.84
2016-10-21T09:56:33.753Z,18.85
2016-10-21T09:57:44.906Z,18.88
2016-10-21T09:58:56.057Z,18.92
2016-10-21T10:00:07.211Z,18.92
2016-10-21T10:01:18.411Z,19
2016-10-21T10:02:29.569Z,19.21
2016-10-21T10:03:40.710Z,19.21
2016-10-21T10:04:51.911Z,19.21
2016-10-21T10:06:03.656Z,19.18
2016-10-21T10:07:14.816Z,19.22
2016-10-21T10:08:25.979Z,19.4
2016-10-21T10:09:37.120Z,19.46
2016-10-21T10:10:48.291Z,19.47
2016-10-21T10:11:59.468Z,19.58
2016-10-21T10:13:11.221Z,19.71
2016-10-21T10:14:22.408Z,19.76
2016-10-21T10:15:33.588Z,20.01
2016-10-21T10:16:44.756Z,20.06
2016-10-21T10:17:56.473Z,20.2
2016-10-21T10:19:07.643Z,20.29
2016-10-21T10:20:18.803Z,20.29
2016-10-21T10:21:29.954Z,20.28
2016-10-21T10:22:41.093Z,20.28
2016-10-21T10:23:52.247Z,20.14
2016-10-21T10:25:03.411Z,20.06
2016-10-21T10:26:14.594Z,19.95
2016-10-21T10:27:25.749Z,20.02
2016-10-21T10:28:36.916Z,19.94
2016-10-21T10:29:48.099Z,19.83
2016-10-21T10:30:59.280Z,19.83
2016-10-21T10:32:10.450Z,19.77
2016-10-21T10:33:22.163Z,19.81
2016-10-21T10:34:33.333Z,19.88
2016-10-21T10:35:44.482Z,19.99
2016-10-21T10:36:55.665Z,19.96
2016-10-21T10:38:07.481Z,19.98
2016-10-21T10:39:18.666Z,20.31
2016-10-21T10:40:30.061Z,20.51
2016-10-21T10:41:41.924Z,20.52
2016-10-21T10:42:53.072Z,20.64
2016-10-21T10:44:04.261Z,20.7
2016-10-21T10:45:15.478Z,20.69
2016-10-21T10:46:26.648Z,20.61
2016-10-21T10:47:37.796Z,20.77
2016-10-21T10:48:48.968Z,20.84
2016-10-21T10:50:00.298Z,20.84
2016-10-21T10:51:11.468Z,20.87
2016-10-21T10:52:22.629Z,20.91
2016-10-21T10:53:33.785Z,20.98
2016-10-21T10:54:44.998Z,20.98
2016-10-21T10:55:56.135Z,20.91
2016-10-21T10:57:07.857Z,21.03
2016-10-21T10:58:19.030Z,21.04
2016-10-21T10:59:30.198Z,20.95
2016-10-21T11:00:41.362Z,20.91
2016-10-21T11:01:52.523Z,20.92
2016-10-21T11:03:03.701Z,20.85
2016-10-21T11:04:14.868Z,20.8
2016-10-21T11:05:26.023Z,20.7
2016-10-21T11:06:37.187Z,20.66
2016-10-21T11:07:48.395Z,20.72
2016-10-21T11:08:59.560Z,20.74
2016-10-21T11:10:10.948Z,20.77
2016-10-21T11:11:22.302Z,20.77
2016-10-21T11:12:33.474Z,20.62
2016-10-21T11:13:44.652Z,20.66
2016-10-21T11:14:55.876Z,20.54
2016-10-21T11:16:07.431Z,20.57
2016-10-21T11:17:18.603Z,20.58
2016-10-21T11:18:29.777Z,20.7
2016-10-21T11:19:40.963Z,20.52
2016-10-21T11:20:52.187Z,20.58
2016-10-21T11:22:03.348Z,20.47
2016-10-21T11:23:14.515Z,20.41
2016-10-21T11:24:25.683Z,20.31
2016-10-21T11:25:36.855Z,20.33
2016-10-21T11:26:48.033Z,20.5
2016-10-21T11:27:59.243Z,20.55
2016-10-21T11:29:10.410Z,20.54
2016-10-21T11:30:21.589Z,20.48
2016-10-21T11:31:32.778Z,20.61
2016-10-21T11:32:43.934Z,20.52
2016-10-21T11:33:55.403Z,20.5
2016-10-21T11:35:06.554Z,20.38
2016-10-21T11:36:18.305Z,20.42
2016-10-21T11:37:29.962Z,20.51
2016-10-21T11:38:41.148Z,20.31
2016-10-21T11:39:52.302Z,20.17
2016-10-21T11:41:03.476Z,20.1
2016-10-21T11:42:15.093Z,19.98
2016-10-21T11:43:27.106Z,19.88
2016-10-21T11:44:38.310Z,19.84
2016-10-21T11:45:49.492Z,19.92
2016-10-21T11:47:01.147Z,20.03
2016-10-21T11:48:12.554Z,20.03
2016-10-21T11:49:24.345Z,20.21
2016-10-21T11:50:36.202Z,20.29
2016-10-21T11:51:47.386Z,20.59
2016-10-21T11:52:58.528Z,20.79
2016-10-21T11:54:09.719Z,21.01
2016-10-21T11:55:21.719Z,21.29
2016-10-21T11:56:33.608Z,21.43
2016-10-21T11:57:44.770Z,21.8
2016-10-21T11:58:55.951Z,21.86
2016-10-21T12:00:07.119Z,22.07
2016-10-21T12:01:18.255Z,22.07
2016-10-21T12:02:29.414Z,21.94
2016-10-21T12:03:40.642Z,21.91
2016-10-21T12:04:51.797Z,21.72
2016-10-21T12:06:02.972Z,21.61
2016-10-21T12:07:14.111Z,21.5
2016-10-21T12:08:25.285Z,21.38
2016-10-21T12:09:36.453Z,21.25
2016-10-21T12:10:47.602Z,21.37
2016-10-21T12:11:58.783Z,21.46
2016-10-21T12:13:09.958Z,21.52
2016-10-21T12:14:21.128Z,21.72
2016-10-21T12:15:32.892Z,21.9
2016-10-21T12:16:44.079Z,21.94
2016-10-21T12:17:55.242Z,21.99
2016-10-21T12:19:06.393Z,22.22
2016-10-21T12:20:17.554Z,22.35
2016-10-21T12:21:28.724Z,22.54
2016-10-21T12:22:39.907Z,22.88
2016-10-21T12:23:51.055Z,23.35
2016-10-21T12:25:02.217Z,23.88
2016-10-21T12:26:13.573Z,23.8
2016-10-21T12:27:25.075Z,23.47
2016-10-21T12:28:36.227Z,23.31
2016-10-21T12:29:47.448Z,23.33
2016-10-21T12:30:58.635Z,23.22
2016-10-21T12:32:09.828Z,23.2
2016-10-21T12:33:21.008Z,23.4
2016-10-21T12:34:32.771Z,23.6
2016-10-21T12:36:41.262Z,23.63
2016-10-21T12:37:52.421Z,23.57
2016-10-21T12:39:03.600Z,23.91
2016-10-21T12:40:14.752Z,24.28
2016-10-21T12:41:27.098Z,24.81
2016-10-21T12:42:38.385Z,25.38
2016-10-21T12:44:33.882Z,24.98
2016-10-21T12:45:45.108Z,24.84
2016-10-21T12:46:56.308Z,24.34
2016-10-21T12:48:07.922Z,24
2016-10-21T12:49:18.897Z,23.91
2016-10-21T12:50:29.852Z,23.27
2016-10-21T12:51:40.774Z,23.01
2016-10-21T12:52:51.693Z,22.88
2016-10-21T12:54:02.766Z,22.72
2016-10-21T12:55:13.931Z,22.61
2016-10-21T12:56:25.104Z,22.7
2016-10-21T12:57:36.310Z,22.73
2016-10-21T12:58:47.483Z,22.77
2016-10-21T12:59:58.689Z,22.83
2016-10-21T13:01:09.883Z,22.65
2016-10-21T13:02:21.030Z,22.76
2016-10-21T13:03:32.230Z,22.67
2016-10-21T13:04:43.385Z,22.52
2016-10-21T13:05:54.560Z,22.22
2016-10-21T13:07:05.737Z,22.03
2016-10-21T13:08:16.937Z,22.15
2016-10-21T13:09:28.122Z,22.18
2016-10-21T13:10:39.337Z,22.3
2016-10-21T13:11:50.534Z,22.67
2016-10-21T13:13:01.843Z,22.68
2016-10-21T13:14:13.099Z,22.62
2016-10-21T13:15:24.282Z,22.54
2016-10-21T13:16:35.446Z,22.57
2016-10-21T13:17:46.593Z,22.65
2016-10-21T13:18:57.792Z,22.8
2016-10-21T13:20:08.980Z,22.88
2016-10-21T13:21:20.161Z,23.16
2016-10-21T13:22:31.321Z,23.72
2016-10-21T13:23:42.483Z,24.18
2016-10-21T13:24:53.636Z,24.37
2016-10-21T13:26:04.804Z,24.62
2016-10-21T13:27:15.969Z,24.62
2016-10-21T13:28:27.143Z,24.53
2016-10-21T13:29:38.305Z,24.4
2016-10-21T13:30:49.463Z,24.37
2016-10-21T13:32:00.629Z,24.09
2016-10-21T13:33:12.366Z,23.7
2016-10-21T13:34:23.514Z,23.58
2016-10-21T13:35:34.695Z,23.55
2016-10-21T13:36:45.974Z,23.25
2016-10-21T13:37:57.191Z,22.91
2016-10-21T13:39:08.387Z,22.62
2016-10-21T13:41:22.755Z,22.47
2016-10-21T13:42:33.959Z,22.42
2016-10-21T13:43:45.169Z,22.4
2016-10-21T13:44:56.212Z,22.45
2016-10-21T13:46:07.163Z,22.45
2016-10-21T13:47:18.070Z,22.31
2016-10-21T13:48:32.017Z,22.35
2016-10-21T13:49:42.962Z,22.33
2016-10-21T13:50:54.052Z,22.46
2016-10-21T13:52:05.223Z,22.54
2016-10-21T13:53:16.379Z,22.58
2016-10-21T13:54:27.536Z,22.47
2016-10-21T13:55:38.731Z,22.36
2016-10-21T13:56:49.909Z,22.24
2016-10-21T13:58:01.103Z,22.1
2016-10-21T13:59:12.402Z,21.98
2016-10-21T14:00:23.563Z,21.88
2016-10-21T14:01:34.765Z,21.91
2016-10-21T14:02:45.971Z,21.96
2016-10-21T14:03:57.162Z,21.96
2016-10-21T14:05:08.386Z,22
2016-10-21T14:06:19.646Z,22.03
2016-10-21T14:07:30.809Z,21.96
2016-10-21T14:08:41.982Z,21.83
2016-10-21T14:09:53.153Z,21.75
2016-10-21T14:11:04.310Z,21.8
2016-10-21T14:12:15.490Z,21.99
2016-10-21T14:13:26.694Z,22.09
2016-10-21T14:14:37.898Z,22.24
2016-10-21T14:15:49.060Z,22.36
2016-10-21T14:17:00.214Z,22.47
2016-10-21T14:18:11.382Z,22.76
2016-10-21T14:19:22.551Z,23.2
2016-10-21T14:20:33.703Z,23.54
2016-10-21T14:21:44.878Z,23.7
2016-10-21T14:22:56.048Z,24.12
2016-10-21T14:24:07.243Z,24.27
2016-10-21T14:25:18.440Z,24.13
2016-10-21T14:26:29.588Z,24.21
2016-10-21T14:27:41.341Z,24.03
2016-10-21T14:28:52.520Z,23.94
2016-10-21T14:30:03.663Z,23.58
2016-10-21T14:31:14.841Z,23.33
2016-10-21T14:32:26.058Z,23.09
2016-10-21T14:33:37.273Z,22.86
2016-10-21T14:34:48.424Z,22.7
2016-10-21T14:35:59.609Z,22.42
2016-10-21T14:37:10.778Z,22.42
2016-10-21T14:38:21.962Z,22.42
2016-10-21T14:39:33.119Z,22.24
2016-10-21T14:40:44.288Z,22.06
2016-10-21T14:41:56.032Z,22.09
2016-10-21T14:43:07.198Z,22.1
2016-10-21T14:44:18.943Z,22.09
2016-10-21T14:45:30.102Z,22.2
2016-10-21T14:46:41.275Z,22.22
2016-10-21T14:47:52.422Z,22.06
2016-10-21T14:49:03.648Z,22.09
2016-10-21T14:50:14.898Z,22
2016-10-21T14:51:26.062Z,21.86
2016-10-21T14:52:37.230Z,21.68
2016-10-21T14:53:48.424Z,21.4
2016-10-21T14:54:59.625Z,21.35
2016-10-21T14:56:10.793Z,21.29
2016-10-21T14:57:22.095Z,21.29
2016-10-21T14:58:33.735Z,21.27
2016-10-21T14:59:44.900Z,21.25
2016-10-21T15:00:56.058Z,21.43
2016-10-21T15:02:07.251Z,21.32
2016-10-21T15:03:18.429Z,21.5
2016-10-21T15:04:30.171Z,21.27
2016-10-21T15:05:41.358Z,21.25
2016-10-21T15:06:52.505Z,21.29
2016-10-21T15:08:03.663Z,21.54
2016-10-21T15:09:14.823Z,21.58
2016-10-21T15:10:26.554Z,21.68
2016-10-21T15:11:37.748Z,21.71
2016-10-21T15:12:48.978Z,21.8
2016-10-21T15:14:00.140Z,22.1
2016-10-21T15:15:11.906Z,22.24
2016-10-21T15:16:23.060Z,22.21
2016-10-21T15:17:34.257Z,22.07
2016-10-21T15:18:45.450Z,22.25
2016-10-21T15:19:56.600Z,22.21
2016-10-21T15:21:07.778Z,22.12
2016-10-21T15:22:18.946Z,22
2016-10-21T15:23:30.137Z,21.91
2016-10-21T15:24:41.300Z,21.86
2016-10-21T15:25:52.510Z,22.21
2016-10-21T15:27:03.760Z,22.46